createdAt,value
2019-04-14T00:00:42.771Z,99.10
2019-04-14T00:03:26.106Z,99.10
2019-04-14T00:06:01.120Z,98.70
2019-04-14T00:08:33.357Z,99.10
2019-04-14T00:11:06.190Z,99.20
2019-04-14T00:13:37.538Z,99.60
2019-04-14T00:16:09.584Z,99.70
2019-04-14T00:18:42.616Z,99.30
2019-04-14T00:21:15.152Z,99.40
2019-04-14T00:23:47.721Z,99.30
2019-04-14T00:26:29.498Z,99.30
2019-04-14T00:29:00.932Z,99.10
2019-04-14T00:31:32.938Z,99.30
2019-04-14T00:34:18.524Z,99.90
2019-04-14T00:37:12.740Z,99.80
2019-04-14T00:39:48.912Z,99.90
2019-04-14T00:42:38.755Z,99.70
2019-04-14T00:45:32.159Z,99.80
2019-04-14T00:48:09.751Z,99.90
2019-04-14T00:50:38.805Z,99.90
2019-04-14T00:53:10.263Z,99.90
2019-04-14T00:55:42.188Z,99.90
2019-04-14T00:58:14.800Z,99.90
2019-04-14T01:00:47.356Z,99.90
2019-04-14T01:03:19.856Z,99.90
2019-04-14T01:05:52.509Z,99.90
2019-04-14T01:08:24.943Z,99.90
2019-04-14T01:10:58.271Z,99.90
2019-04-14T01:13:31.116Z,99.90
2019-04-14T01:16:08.925Z,99.90
2019-04-14T01:18:36.499Z,99.90
2019-04-14T01:21:08.926Z,99.90
2019-04-14T01:23:41.228Z,99.90
2019-04-14T01:26:13.782Z,99.90
2019-04-14T01:28:46.175Z,99.90
2019-04-14T01:31:18.455Z,99.90
2019-04-14T01:33:50.937Z,99.90
2019-04-14T01:36:23.475Z,99.90
2019-04-14T01:38:55.750Z,99.90
2019-04-14T01:41:28.229Z,99.90
2019-04-14T01:44:00.307Z,99.90
2019-04-14T01:46:33.965Z,99.90
2019-04-14T01:49:05.111Z,99.90
2019-04-14T01:51:48.697Z,99.90
2019-04-14T01:54:43.059Z,99.90
2019-04-14T01:57:32.867Z,99.90
2019-04-14T02:00:29.202Z,99.90
2019-04-14T02:03:00.560Z,99.90
2019-04-14T02:05:32.106Z,99.90
2019-04-14T02:08:04.462Z,99.90
2019-04-14T02:10:36.897Z,99.90
2019-04-14T02:13:09.276Z,99.90
2019-04-14T02:15:42.059Z,99.90
2019-04-14T02:18:14.279Z,99.90
2019-04-14T02:20:46.744Z,99.90
2019-04-14T02:23:19.255Z,99.90
2019-04-14T02:25:51.472Z,99.90
2019-04-14T02:28:22.755Z,99.90
2019-04-14T02:31:03.395Z,99.90
2019-04-14T02:33:50.312Z,99.90
2019-04-14T02:36:32.269Z,99.90
2019-04-14T02:39:06.094Z,99.90
2019-04-14T02:42:04.865Z,99.90
2019-04-14T02:46:49.660Z,99.90
2019-04-14T02:49:16.843Z,99.90
2019-04-14T02:51:52.058Z,99.90
2019-04-14T02:54:36.934Z,99.90
2019-04-14T02:59:27.056Z,99.90
2019-04-14T03:02:18.929Z,99.90
2019-04-14T03:04:41.320Z,99.90
2019-04-14T03:07:14.312Z,99.90
2019-04-14T03:09:42.352Z,99.90
2019-04-14T03:12:16.667Z,99.90
2019-04-14T03:17:58.463Z,99.90
2019-04-14T03:20:27.946Z,99.90
2019-04-14T03:22:55.799Z,99.90
2019-04-14T03:25:37.515Z,99.90
2019-04-14T03:34:18.507Z,99.90
2019-04-14T03:37:16.359Z,99.90
2019-04-14T03:39:00.280Z,99.90
2019-04-14T03:41:29.210Z,99.90
2019-04-14T03:43:55.011Z,99.90
2019-04-14T03:46:39.320Z,99.90
2019-04-14T03:49:06.281Z,99.90
2019-04-14T03:51:45.077Z,99.90
2019-04-14T03:54:20.501Z,99.90
2019-04-14T03:57:08.314Z,99.90
2019-04-14T03:59:39.758Z,99.90
2019-04-14T04:02:11.821Z,99.90
2019-04-14T04:04:44.427Z,99.90
2019-04-14T04:07:17.107Z,99.90
2019-04-14T04:09:54.096Z,99.90
2019-04-14T04:12:27.160Z,99.90
2019-04-14T04:14:59.633Z,99.90
2019-04-14T04:17:38.936Z,99.90
2019-04-14T04:20:18.138Z,99.90
2019-04-14T04:23:10.283Z,99.90
2019-04-14T04:25:57.265Z,99.90
2019-04-14T04:28:51.802Z,99.90
2019-04-14T04:31:30.910Z,99.90
2019-04-14T04:34:09.821Z,99.90
2019-04-14T04:36:57.473Z,99.90
2019-04-14T04:39:36.416Z,99.90
2019-04-14T04:42:09.034Z,99.90
2019-04-14T04:44:40.634Z,99.90
2019-04-14T04:47:12.381Z,99.90
2019-04-14T04:49:44.766Z,99.90
2019-04-14T04:52:17.203Z,99.90
2019-04-14T04:54:49.592Z,99.90
2019-04-14T04:57:22.078Z,99.90
2019-04-14T04:59:53.935Z,99.90
2019-04-14T05:02:26.695Z,99.90
2019-04-14T05:04:59.121Z,99.90
2019-04-14T05:07:31.666Z,99.90
2019-04-14T05:10:26.345Z,99.90
2019-04-14T05:13:07.920Z,99.90
2019-04-14T05:15:59.863Z,99.90
2019-04-14T05:18:31.372Z,99.90
2019-04-14T05:21:03.841Z,99.90
2019-04-14T05:23:36.618Z,99.90
2019-04-14T05:26:09.216Z,99.90
2019-04-14T05:28:41.674Z,99.90
2019-04-14T05:31:14.222Z,99.90
2019-04-14T05:33:46.800Z,99.90
2019-04-14T05:36:19.283Z,99.90
2019-04-14T05:38:51.855Z,99.90
2019-04-14T05:41:24.415Z,99.90
2019-04-14T05:43:59.727Z,99.90
2019-04-14T05:46:29.602Z,99.90
2019-04-14T05:49:02.298Z,99.90
2019-04-14T05:51:34.965Z,99.90
2019-04-14T05:54:07.818Z,99.90
2019-04-14T05:56:40.661Z,99.90
2019-04-14T05:59:13.428Z,99.90
2019-04-14T06:01:44.987Z,99.90
2019-04-14T06:04:17.838Z,99.90
2019-04-14T06:06:49.941Z,99.90
2019-04-14T06:09:21.445Z,99.90
2019-04-14T06:11:53.161Z,99.90
2019-04-14T06:14:24.526Z,99.90
2019-04-14T06:16:55.854Z,99.90
2019-04-14T06:19:36.457Z,99.90
2019-04-14T06:22:00.357Z,99.90
2019-04-14T06:24:31.819Z,99.90
2019-04-14T06:27:03.290Z,99.90
2019-04-14T06:29:34.737Z,99.90
2019-04-14T06:32:16.228Z,99.90
2019-04-14T06:35:11.199Z,99.90
2019-04-14T06:37:55.431Z,99.90
2019-04-14T06:40:28.560Z,99.90
2019-04-14T06:42:59.918Z,99.90
2019-04-14T06:45:32.938Z,99.90
2019-04-14T06:48:06.971Z,99.90
2019-04-14T06:50:38.335Z,99.90
2019-04-14T06:53:10.155Z,99.80
2019-04-14T06:55:41.466Z,99.90
2019-04-14T06:58:12.961Z,99.80
2019-04-14T07:00:44.442Z,99.30
2019-04-14T07:03:15.938Z,98.90
2019-04-14T07:05:47.480Z,98.90
2019-04-14T07:08:19.136Z,98.50
2019-04-14T07:10:50.778Z,97.90
2019-04-14T07:13:22.219Z,97.20
2019-04-14T07:15:53.977Z,97.30
2019-04-14T07:18:25.427Z,96.70
2019-04-14T07:20:57.703Z,96.50
2019-04-14T07:23:29.255Z,96.00
2019-04-14T07:26:00.606Z,96.90
2019-04-14T07:28:32.062Z,96.00
2019-04-14T07:31:21.322Z,95.10
2019-04-14T07:34:14.505Z,94.60
2019-04-14T07:37:03.738Z,94.40
2019-04-14T07:39:45.822Z,94.90
2019-04-14T07:42:22.421Z,92.80
2019-04-14T07:45:02.409Z,93.30
2019-04-14T07:47:38.784Z,93.60
2019-04-14T07:50:29.913Z,93.20
2019-04-14T07:53:12.418Z,91.20
2019-04-14T07:56:01.235Z,90.90
2019-04-14T07:58:51.565Z,90.70
2019-04-14T08:01:28.380Z,90.30
2019-04-14T08:04:18.212Z,87.40
2019-04-14T08:06:51.252Z,87.70
2019-04-14T08:09:22.621Z,86.10
2019-04-14T08:11:54.041Z,83.20
2019-04-14T08:14:25.519Z,84.40
2019-04-14T08:16:56.907Z,86.10
2019-04-14T08:19:28.393Z,85.50
2019-04-14T08:21:59.936Z,87.60
2019-04-14T08:24:31.329Z,84.10
2019-04-14T08:27:02.679Z,83.70
2019-04-14T08:29:34.161Z,81.70
2019-04-14T08:32:05.700Z,81.20
2019-04-14T08:34:38.872Z,80.10
2019-04-14T08:37:10.494Z,78.50
2019-04-14T08:39:42.047Z,80.00
2019-04-14T08:42:25.792Z,82.10
2019-04-14T08:44:58.373Z,76.80
2019-04-14T08:47:49.533Z,75.20
2019-04-14T08:50:42.292Z,77.90
2019-04-14T08:53:22.227Z,72.30
2019-04-14T08:56:07.807Z,71.40
2019-04-14T08:58:55.307Z,70.80
2019-04-14T09:01:48.632Z,71.30
2019-04-14T09:04:30.859Z,63.50
2019-04-14T09:07:09.457Z,66.10
2019-04-14T09:09:43.463Z,68.80
2019-04-14T09:12:37.176Z,69.90
2019-04-14T09:15:09.958Z,67.40
2019-04-14T09:17:41.412Z,68.10
2019-04-14T09:20:15.912Z,71.90
2019-04-14T09:22:47.572Z,73.10
2019-04-14T09:25:20.047Z,72.70
2019-04-14T09:27:51.570Z,79.20
2019-04-14T09:30:22.983Z,73.00
2019-04-14T09:32:54.552Z,73.80
2019-04-14T09:35:25.923Z,69.10
2019-04-14T09:37:57.267Z,71.70
2019-04-14T09:40:28.944Z,69.10
2019-04-14T09:43:00.713Z,68.10
2019-04-14T09:45:32.091Z,69.10
2019-04-14T09:48:03.956Z,67.10
2019-04-14T09:50:35.532Z,65.60
2019-04-14T09:53:07.349Z,64.60
2019-04-14T09:55:39.410Z,63.10
2019-04-14T09:58:10.812Z,64.90
2019-04-14T10:00:42.342Z,59.10
2019-04-14T10:03:13.938Z,59.70
2019-04-14T10:05:45.362Z,61.60
2019-04-14T10:08:16.819Z,60.90
2019-04-14T10:10:48.385Z,61.20
2019-04-14T10:13:20.235Z,57.80
2019-04-14T10:15:51.917Z,56.70
2019-04-14T10:18:23.191Z,56.10
2019-04-14T10:20:54.634Z,55.60
2019-04-14T10:23:25.940Z,55.00
2019-04-14T10:25:57.883Z,56.90
2019-04-14T10:28:29.649Z,55.00
2019-04-14T10:31:01.137Z,54.60
2019-04-14T10:33:32.640Z,55.50
2019-04-14T10:36:04.505Z,54.80
2019-04-14T10:38:36.057Z,53.50
2019-04-14T10:41:07.536Z,53.10
2019-04-14T10:43:39.013Z,54.90
2019-04-14T10:46:11.293Z,55.60
2019-04-14T10:48:43.607Z,54.80
2019-04-14T10:51:15.367Z,55.40
2019-04-14T10:53:47.662Z,58.70
2019-04-14T10:56:19.480Z,58.40
2019-04-14T10:58:51.422Z,55.70
2019-04-14T11:01:23.662Z,55.90
2019-04-14T11:03:55.697Z,55.50
2019-04-14T11:06:34.944Z,58.30
2019-04-14T11:09:13.964Z,57.40
2019-04-14T11:11:46.352Z,56.80
2019-04-14T11:14:17.792Z,56.60
2019-04-14T11:16:49.204Z,54.10
2019-04-14T11:19:21.012Z,56.40
2019-04-14T11:21:53.168Z,56.30
2019-04-14T11:24:24.572Z,55.50
2019-04-14T11:26:56.748Z,55.00
2019-04-14T11:29:28.126Z,54.90
2019-04-14T11:32:17.188Z,55.20
2019-04-14T11:35:16.228Z,53.00
2019-04-14T11:38:05.254Z,53.90
2019-04-14T11:40:42.089Z,53.80
2019-04-14T11:43:13.464Z,55.10
2019-04-14T11:45:44.979Z,55.20
2019-04-14T11:48:16.543Z,53.50
2019-04-14T11:50:48.121Z,56.40
2019-04-14T11:53:20.530Z,52.70
2019-04-14T11:55:52.087Z,51.20
2019-04-14T11:58:23.961Z,50.20
2019-04-14T12:01:29.616Z,50.00
2019-04-14T12:04:08.938Z,51.60
2019-04-14T12:07:17.560Z,49.30
2019-04-14T12:09:55.644Z,49.30
2019-04-14T12:12:27.091Z,47.10
2019-04-14T12:14:58.477Z,48.60
2019-04-14T12:17:29.933Z,50.30
2019-04-14T12:20:01.900Z,50.30
2019-04-14T12:22:34.024Z,51.30
2019-04-14T12:25:07.542Z,52.40
2019-04-14T12:27:42.595Z,47.40
2019-04-14T12:30:20.516Z,46.30
2019-04-14T12:32:52.054Z,47.50
2019-04-14T12:35:24.083Z,46.00
2019-04-14T12:37:55.686Z,47.20
2019-04-14T12:40:27.431Z,49.00
2019-04-14T12:43:09.353Z,49.10
2019-04-14T12:46:05.947Z,47.50
2019-04-14T12:48:47.664Z,49.00
2019-04-14T12:51:26.477Z,51.30
2019-04-14T12:53:58.799Z,52.20
2019-04-14T12:56:30.395Z,52.50
2019-04-14T12:59:23.170Z,52.40
2019-04-14T13:02:28.790Z,53.40
2019-04-14T13:05:00.243Z,54.80
2019-04-14T13:07:31.747Z,56.30
2019-04-14T13:10:03.262Z,57.00
2019-04-14T13:12:34.748Z,56.50
2019-04-14T13:15:07.026Z,56.90
2019-04-14T13:17:39.423Z,56.50
2019-04-14T13:20:12.189Z,53.00
2019-04-14T13:22:44.177Z,50.70
2019-04-14T13:25:16.320Z,51.10
2019-04-14T13:27:48.998Z,50.90
2019-04-14T13:30:26.078Z,51.90
2019-04-14T13:32:58.001Z,51.40
2019-04-14T13:35:29.942Z,52.20
2019-04-14T13:38:01.745Z,50.70
2019-04-14T13:40:33.539Z,50.40
2019-04-14T13:43:05.151Z,52.40
2019-04-14T13:45:36.811Z,52.10
2019-04-14T13:48:08.486Z,50.50
2019-04-14T13:50:40.252Z,53.80
2019-04-14T13:53:11.805Z,52.30
2019-04-14T13:55:43.415Z,53.00
2019-04-14T13:58:15.490Z,53.10
2019-04-14T14:01:01.047Z,52.70
2019-04-14T14:03:34.266Z,52.30
2019-04-14T14:06:05.919Z,53.20
2019-04-14T14:08:39.299Z,53.80
2019-04-14T14:11:18.567Z,51.60
2019-04-14T14:13:59.256Z,53.60
2019-04-14T14:16:58.516Z,53.40
2019-04-14T14:19:37.685Z,55.40
2019-04-14T14:22:20.016Z,54.50
2019-04-14T14:25:06.837Z,55.00
2019-04-14T14:27:38.292Z,55.10
2019-04-14T14:30:12.621Z,54.80
2019-04-14T14:32:44.520Z,55.70
2019-04-14T14:35:15.984Z,56.30
2019-04-14T14:37:47.415Z,57.70
2019-04-14T14:40:18.987Z,58.20
2019-04-14T14:42:50.415Z,55.90
2019-04-14T14:45:35.816Z,56.00
2019-04-14T14:48:25.846Z,57.20
2019-04-14T14:51:11.385Z,55.60
2019-04-14T14:53:42.815Z,56.70
2019-04-14T14:56:14.270Z,57.20
2019-04-14T14:58:45.733Z,55.40
2019-04-14T15:01:17.560Z,55.60
2019-04-14T15:03:49.237Z,56.50
2019-04-14T15:06:21.047Z,56.80
2019-04-14T15:08:52.728Z,56.50
2019-04-14T15:11:24.098Z,56.00
2019-04-14T15:13:55.814Z,56.70
2019-04-14T15:16:27.226Z,59.90
2019-04-14T15:18:58.512Z,59.60
2019-04-14T15:21:29.969Z,59.40
2019-04-14T15:24:01.465Z,59.30
2019-04-14T15:26:32.929Z,60.20
2019-04-14T15:29:04.460Z,62.40
2019-04-14T15:31:36.014Z,61.30
2019-04-14T15:34:10.536Z,62.60
2019-04-14T15:36:41.065Z,62.50
2019-04-14T15:39:13.012Z,61.70
2019-04-14T15:41:44.968Z,60.20
2019-04-14T15:44:16.680Z,61.90
2019-04-14T15:46:48.153Z,62.10
2019-04-14T15:49:19.533Z,61.80
2019-04-14T15:51:51.014Z,61.50
2019-04-14T15:54:25.260Z,63.40
2019-04-14T15:57:01.637Z,62.00
2019-04-14T15:59:43.544Z,63.00
2019-04-14T16:02:27.506Z,62.90
2019-04-14T16:05:05.973Z,66.30
2019-04-14T16:07:54.094Z,65.70
2019-04-14T16:10:46.113Z,65.80
2019-04-14T16:13:23.032Z,65.20
2019-04-14T16:16:04.256Z,65.70
2019-04-14T16:18:45.530Z,66.20
2019-04-14T16:21:16.912Z,66.70
2019-04-14T16:23:50.900Z,65.90
2019-04-14T16:26:40.422Z,67.50
2019-04-14T16:29:21.534Z,69.10
2019-04-14T16:32:08.167Z,70.10
2019-04-14T16:34:52.349Z,71.10
2019-04-14T16:37:23.799Z,73.80
2019-04-14T16:39:55.843Z,74.30
2019-04-14T16:42:28.311Z,74.90
2019-04-14T16:44:59.992Z,75.10
2019-04-14T16:47:31.393Z,76.20
2019-04-14T16:50:02.904Z,78.10
2019-04-14T16:52:47.090Z,77.80
2019-04-14T16:55:37.386Z,78.40
2019-04-14T16:58:39.718Z,78.80
2019-04-14T17:01:14.499Z,79.90
2019-04-14T17:03:45.826Z,81.20
2019-04-14T17:06:18.105Z,82.30
2019-04-14T17:08:49.927Z,82.80
2019-04-14T17:11:21.522Z,83.60
2019-04-14T17:14:00.579Z,84.50
2019-04-14T17:17:07.273Z,85.50
2019-04-14T17:20:09.615Z,85.50
2019-04-14T17:23:09.407Z,86.30
2019-04-14T17:26:09.402Z,87.20
2019-04-14T17:29:03.777Z,87.70
2019-04-14T17:31:53.062Z,88.90
2019-04-14T17:34:33.594Z,90.20
2019-04-14T17:37:13.104Z,91.00
2019-04-14T17:40:01.832Z,92.10
2019-04-14T17:42:52.630Z,93.10
2019-04-14T17:45:33.022Z,94.00
2019-04-14T17:48:29.688Z,94.80
2019-04-14T17:51:06.072Z,95.70
2019-04-14T17:53:59.908Z,96.70
2019-04-14T17:56:41.554Z,97.50
2019-04-14T17:59:17.251Z,97.80
2019-04-14T18:02:13.422Z,98.60
2019-04-14T18:05:16.206Z,98.90
2019-04-14T18:07:56.960Z,99.30
2019-04-14T18:10:35.456Z,99.90
2019-04-14T18:13:35.279Z,99.90
2019-04-14T18:16:22.928Z,99.90
2019-04-14T18:19:17.460Z,99.90
2019-04-14T18:21:48.911Z,99.90
2019-04-14T18:24:20.461Z,99.90
2019-04-14T18:26:52.065Z,99.90
2019-04-14T18:29:35.268Z,99.90
2019-04-14T18:32:24.713Z,99.90
2019-04-14T18:35:18.403Z,99.90
2019-04-14T18:38:15.514Z,99.90
2019-04-14T18:40:57.211Z,99.90
2019-04-14T18:43:46.674Z,99.90
2019-04-14T18:46:39.678Z,99.90
2019-04-14T18:49:34.807Z,99.90
2019-04-14T18:52:25.535Z,99.90
2019-04-14T18:55:16.865Z,99.90
2019-04-14T18:57:59.478Z,99.90
2019-04-14T19:00:38.891Z,99.90
2019-04-14T19:03:10.305Z,99.90
2019-04-14T19:05:42.067Z,99.90
2019-04-14T19:08:13.551Z,99.90
2019-04-14T19:10:49.985Z,99.90
2019-04-14T19:13:25.748Z,99.90
2019-04-14T19:16:07.361Z,99.90
2019-04-14T19:18:43.383Z,99.90
2019-04-14T19:21:16.985Z,99.90
2019-04-14T19:23:48.814Z,99.90
2019-04-14T19:26:20.274Z,99.90
2019-04-14T19:28:51.864Z,99.90
2019-04-14T19:31:23.342Z,99.90
2019-04-14T19:33:55.183Z,99.90
2019-04-14T19:36:26.678Z,99.90
2019-04-14T19:38:58.488Z,99.90
2019-04-14T19:41:29.921Z,99.90
2019-04-14T19:44:01.987Z,99.90
2019-04-14T19:46:33.559Z,99.90
2019-04-14T19:49:05.126Z,99.90
2019-04-14T19:51:41.169Z,99.90
2019-04-14T19:54:12.764Z,99.90
2019-04-14T19:56:44.554Z,99.90
2019-04-14T19:59:17.084Z,99.90
2019-04-14T20:01:48.610Z,99.90
2019-04-14T20:04:20.046Z,99.90
2019-04-14T20:06:51.424Z,99.90
2019-04-14T20:09:24.043Z,99.90
2019-04-14T20:11:55.590Z,99.90
2019-04-14T20:14:27.391Z,99.90
2019-04-14T20:17:17.949Z,99.90
2019-04-14T20:20:04.180Z,99.90
2019-04-14T20:23:00.733Z,99.90
2019-04-14T20:25:47.660Z,99.90
2019-04-14T20:28:37.999Z,99.90
2019-04-14T20:31:24.504Z,99.90
2019-04-14T20:33:55.993Z,99.90
2019-04-14T20:36:29.020Z,99.90
2019-04-14T20:39:00.853Z,99.90
2019-04-14T20:41:34.426Z,99.90
2019-04-14T20:44:05.896Z,99.90
2019-04-14T20:46:38.236Z,99.90
2019-04-14T20:49:09.896Z,99.90
2019-04-14T20:51:41.500Z,99.90
2019-04-14T20:54:12.995Z,99.90
2019-04-14T20:56:44.449Z,99.90
2019-04-14T20:59:15.870Z,99.90
2019-04-14T21:01:53.837Z,99.90
2019-04-14T21:04:32.589Z,99.90
2019-04-14T21:07:41.084Z,99.90
2019-04-14T21:10:23.134Z,99.90
2019-04-14T21:13:01.944Z,99.90
2019-04-14T21:15:41.780Z,99.90
2019-04-14T21:18:32.490Z,99.90
2019-04-14T21:21:21.713Z,99.90
2019-04-14T21:23:57.964Z,99.90
2019-04-14T21:26:46.310Z,99.90
2019-04-14T21:29:39.404Z,99.90
2019-04-14T21:32:26.234Z,99.90
2019-04-14T21:35:16.731Z,99.90
2019-04-14T21:37:54.281Z,99.90
2019-04-14T21:40:51.000Z,99.90
2019-04-14T21:43:23.611Z,99.90
2019-04-14T21:45:55.345Z,99.90
2019-04-14T21:48:26.719Z,99.90
2019-04-14T21:50:58.112Z,99.90
2019-04-14T21:53:29.428Z,99.90
2019-04-14T21:56:12.788Z,99.90
2019-04-14T21:58:52.058Z,99.90
2019-04-14T22:01:53.589Z,99.90
2019-04-14T22:04:46.342Z,99.90
2019-04-14T22:07:35.733Z,99.90
2019-04-14T22:10:33.603Z,99.90
2019-04-14T22:13:05.470Z,99.90
2019-04-14T22:15:36.871Z,99.90
2019-04-14T22:18:08.589Z,99.90
2019-04-14T22:20:40.308Z,99.90
2019-04-14T22:23:12.359Z,99.90
2019-04-14T22:25:43.801Z,99.90
2019-04-14T22:28:15.330Z,99.90
2019-04-14T22:30:46.797Z,99.90
2019-04-14T22:33:18.489Z,99.90
2019-04-14T22:35:50.048Z,99.90
2019-04-14T22:38:22.053Z,99.90
2019-04-14T22:40:53.547Z,99.90
2019-04-14T22:43:24.958Z,99.90
2019-04-14T22:45:56.454Z,99.90
2019-04-14T22:48:28.078Z,99.90
2019-04-14T22:50:59.538Z,99.90
2019-04-14T22:53:30.991Z,99.90
2019-04-14T22:56:02.354Z,99.90
2019-04-14T22:58:33.652Z,99.90
2019-04-14T23:01:33.639Z,99.90
2019-04-14T23:04:25.305Z,99.90
2019-04-14T23:07:11.737Z,99.90
2019-04-14T23:09:50.579Z,99.90
2019-04-14T23:12:40.813Z,99.90
2019-04-14T23:15:31.550Z,99.90
2019-04-14T23:18:16.384Z,99.90
2019-04-14T23:21:15.726Z,99.90
2019-04-14T23:23:54.563Z,99.90
2019-04-14T23:26:26.369Z,99.90
2019-04-14T23:28:57.870Z,99.90
2019-04-14T23:31:29.407Z,99.90
2019-04-14T23:34:00.917Z,99.90
2019-04-14T23:36:32.473Z,99.90
2019-04-14T23:39:06.257Z,99.90
2019-04-14T23:41:38.845Z,99.90
2019-04-14T23:44:10.245Z,99.90
2019-04-14T23:46:42.045Z,99.90
2019-04-14T23:49:13.521Z,99.90
2019-04-14T23:51:45.031Z,99.90
2019-04-14T23:54:16.415Z,99.90
2019-04-14T23:56:47.850Z,99.90
2019-04-14T23:59:19.440Z,99.90
